createdAt,value
2019-02-15T00:00:42.837Z,102076.69
2019-02-15T00:05:44.564Z,102063.94
2019-02-15T00:10:46.252Z,102072.30
2019-02-15T00:15:47.992Z,102067.13
2019-02-15T00:21:04.178Z,102073.09
2019-02-15T00:26:05.795Z,102066.59
2019-02-15T00:31:09.108Z,102063.70
2019-02-15T00:36:10.717Z,102061.47
2019-02-15T00:41:12.456Z,102065.13
2019-02-15T00:46:32.840Z,102060.91
2019-02-15T00:51:49.641Z,102060.95
2019-02-15T00:57:08.378Z,102063.51
2019-02-15T01:02:16.469Z,102056.28
2019-02-15T01:07:49.873Z,102057.77
2019-02-15T01:12:55.933Z,102056.47
2019-02-15T01:17:57.718Z,102053.92
2019-02-15T01:22:59.429Z,102050.81
2019-02-15T01:28:06.300Z,102066.23
2019-02-15T01:33:18.204Z,102062.94
2019-02-15T01:38:48.540Z,102059.94
2019-02-15T01:43:54.407Z,102066.68
2019-02-15T01:48:55.986Z,102061.63
2019-02-15T01:53:57.782Z,102058.41
2019-02-15T01:58:59.475Z,102056.28
2019-02-15T02:04:01.183Z,102047.69
2019-02-15T02:09:04.178Z,102051.61
2019-02-15T02:14:05.887Z,102044.33
2019-02-15T02:19:07.578Z,102044.71
2019-02-15T02:24:09.285Z,102035.82
2019-02-15T02:29:10.853Z,102039.50
2019-02-15T02:34:12.476Z,102040.56
2019-02-15T02:39:14.054Z,102030.13
2019-02-15T02:44:15.780Z,102033.48
2019-02-15T02:49:17.459Z,102028.00
2019-02-15T02:54:19.052Z,102024.62
2019-02-15T02:59:20.657Z,102029.36
2019-02-15T03:04:22.237Z,102024.84
2019-02-15T03:09:23.939Z,102028.86
2019-02-15T03:14:25.608Z,102033.02
2019-02-15T03:19:27.338Z,102030.75
2019-02-15T03:24:29.048Z,102025.44
2019-02-15T03:29:30.712Z,102034.55
2019-02-15T03:34:32.406Z,102038.84
2019-02-15T03:39:46.726Z,102039.41
2019-02-15T03:44:48.436Z,102038.86
2019-02-15T03:49:50.136Z,102036.91
2019-02-15T03:54:51.766Z,102037.27
2019-02-15T03:59:53.378Z,102033.14
2019-02-15T04:04:55.094Z,102034.19
2019-02-15T04:09:56.804Z,102029.84
2019-02-15T04:14:58.507Z,102040.98
2019-02-15T04:20:00.331Z,102041.86
2019-02-15T04:25:01.996Z,102033.14
2019-02-15T04:30:04.554Z,102036.87
2019-02-15T04:35:06.242Z,102034.22
2019-02-15T04:40:08.201Z,102030.14
2019-02-15T04:45:10.141Z,102025.30
2019-02-15T04:50:11.942Z,102027.02
2019-02-15T04:55:13.708Z,102027.53
2019-02-15T05:00:15.444Z,102021.95
2019-02-15T05:05:17.413Z,102024.28
2019-02-15T05:10:19.138Z,102018.78
2019-02-15T05:15:20.913Z,102012.98
2019-02-15T05:20:22.742Z,102009.80
2019-02-15T05:25:24.512Z,102013.78
2019-02-15T05:30:26.306Z,102011.05
2019-02-15T05:35:28.097Z,102016.26
2019-02-15T05:40:29.999Z,102010.66
2019-02-15T05:45:31.771Z,102013.27
2019-02-15T05:50:33.586Z,102014.48
2019-02-15T05:55:35.308Z,102013.66
2019-02-15T06:00:37.470Z,102015.87
2019-02-15T06:05:39.188Z,102021.40
2019-02-15T06:10:40.927Z,102017.31
2019-02-15T06:15:42.502Z,102016.53
2019-02-15T06:20:44.076Z,102014.58
2019-02-15T06:25:45.677Z,102014.91
2019-02-15T06:30:47.382Z,102021.20
2019-02-15T06:35:49.007Z,102015.23
2019-02-15T06:40:50.605Z,102013.62
2019-02-15T06:45:52.213Z,102022.95
2019-02-15T06:50:53.780Z,102021.28
2019-02-15T06:55:55.435Z,102032.83
2019-02-15T07:01:05.063Z,102038.17
2019-02-15T07:06:06.693Z,102038.48
2019-02-15T07:11:08.290Z,102038.79
2019-02-15T07:16:09.877Z,102046.85
2019-02-15T07:21:11.470Z,102045.81
2019-02-15T07:26:13.104Z,102044.31
2019-02-15T07:31:14.677Z,102045.79
2019-02-15T07:36:16.328Z,102048.31
2019-02-15T07:41:18.075Z,102054.73
2019-02-15T07:46:19.638Z,102045.98
2019-02-15T07:51:21.220Z,102053.55
2019-02-15T07:56:22.830Z,102053.77
2019-02-15T08:01:24.427Z,102058.30
2019-02-15T08:06:26.016Z,102049.16
2019-02-15T08:11:27.616Z,102051.31
2019-02-15T08:16:29.198Z,102056.55
2019-02-15T08:21:30.779Z,102053.95
2019-02-15T08:26:32.356Z,102057.88
2019-02-15T08:31:33.940Z,102065.80
2019-02-15T08:36:35.541Z,102060.66
2019-02-15T08:41:37.129Z,102058.44
2019-02-15T08:46:38.704Z,102057.91
2019-02-15T08:51:40.287Z,102058.73
2019-02-15T08:56:41.866Z,102057.76
2019-02-15T09:01:45.353Z,102054.22
2019-02-15T09:06:47.075Z,102064.59
2019-02-15T09:11:48.622Z,102058.05
2019-02-15T09:16:50.197Z,102046.20
2019-02-15T09:21:51.780Z,102057.00
2019-02-15T09:26:53.373Z,102055.67
2019-02-15T09:31:54.960Z,102052.11
2019-02-15T09:36:56.631Z,102049.47
2019-02-15T09:41:58.208Z,102055.32
2019-02-15T09:46:59.793Z,102051.42
2019-02-15T09:52:01.387Z,102050.73
2019-02-15T09:57:03.105Z,102053.78
2019-02-15T10:02:04.690Z,102043.94
2019-02-15T10:07:06.280Z,102041.48
2019-02-15T10:12:07.856Z,102036.64
2019-02-15T10:17:09.550Z,102032.17
2019-02-15T10:22:11.603Z,102032.04
2019-02-15T10:27:13.442Z,102030.01
2019-02-15T10:32:15.118Z,102037.16
2019-02-15T10:37:16.694Z,102026.89
2019-02-15T10:42:18.423Z,102023.44
2019-02-15T10:47:25.097Z,102022.16
2019-02-15T10:52:23.515Z,102022.69
2019-02-15T10:57:25.117Z,102012.92
2019-02-15T11:02:26.725Z,102018.64
2019-02-15T11:07:28.416Z,102019.88
2019-02-15T11:12:30.021Z,102017.55
2019-02-15T11:17:31.717Z,102009.53
2019-02-15T11:22:33.309Z,101998.79
2019-02-15T11:27:34.885Z,101997.94
2019-02-15T11:32:36.449Z,101993.45
2019-02-15T11:37:38.181Z,101989.67
2019-02-15T11:42:39.862Z,101976.72
2019-02-15T11:47:41.574Z,101972.87
2019-02-15T11:52:43.172Z,101979.84
2019-02-15T11:57:44.761Z,101961.80
2019-02-15T12:02:46.354Z,101938.11
2019-02-15T12:07:47.942Z,101938.11
2019-02-15T12:12:49.745Z,101944.16
2019-02-15T12:17:51.337Z,101931.66
2019-02-15T12:22:52.933Z,101932.70
2019-02-15T12:27:54.613Z,101918.61
2019-02-15T12:32:56.215Z,101923.79
2019-02-15T12:37:58.622Z,101910.59
2019-02-15T12:43:00.217Z,101902.93
2019-02-15T12:48:01.901Z,101899.09
2019-02-15T12:53:03.578Z,101892.09
2019-02-15T12:58:05.180Z,101887.97
2019-02-15T13:03:06.914Z,101867.70
2019-02-15T13:08:08.533Z,101865.89
2019-02-15T13:13:10.138Z,101862.13
2019-02-15T13:18:11.751Z,101860.52
2019-02-15T13:23:13.454Z,101852.41
2019-02-15T13:28:15.060Z,101852.12
2019-02-15T13:33:17.758Z,101844.13
2019-02-15T13:38:19.475Z,101843.34
2019-02-15T13:43:21.135Z,101839.14
2019-02-15T13:48:22.747Z,101827.94
2019-02-15T13:53:24.469Z,101819.98
2019-02-15T13:58:26.082Z,101825.81
2019-02-15T14:03:27.652Z,101814.69
2019-02-15T14:08:29.363Z,101821.27
2019-02-15T14:13:30.942Z,101815.55
2019-02-15T14:18:32.532Z,101814.28
2019-02-15T14:23:34.136Z,101803.78
2019-02-15T14:28:35.719Z,101797.20
2019-02-15T14:33:37.286Z,101804.16
2019-02-15T14:38:38.863Z,101789.61
2019-02-15T14:43:40.429Z,101792.87
2019-02-15T14:48:42.000Z,101787.86
2019-02-15T14:53:43.569Z,101778.80
2019-02-15T14:58:45.214Z,101773.50
2019-02-15T15:03:47.130Z,101769.67
2019-02-15T15:08:48.797Z,101761.23
2019-02-15T15:13:50.405Z,101762.87
2019-02-15T15:18:52.006Z,101755.06
2019-02-15T15:23:53.706Z,101750.03
2019-02-15T15:28:55.285Z,101740.77
2019-02-15T15:33:56.913Z,101739.16
2019-02-15T15:39:32.502Z,101735.27
2019-02-15T15:44:34.240Z,101736.58
2019-02-15T15:49:35.838Z,101731.98
2019-02-15T15:54:37.393Z,101726.58
2019-02-15T15:59:38.966Z,101720.66
2019-02-15T16:04:40.538Z,101712.33
2019-02-15T16:09:42.121Z,101711.02
2019-02-15T16:14:43.695Z,101716.02
2019-02-15T16:19:49.488Z,101715.11
2019-02-15T16:24:48.763Z,101711.45
2019-02-15T16:29:50.543Z,101719.31
2019-02-15T16:34:52.164Z,101721.94
2019-02-15T16:39:53.768Z,101730.39
2019-02-15T16:44:55.479Z,101731.14
2019-02-15T16:49:57.051Z,101735.16
2019-02-15T16:54:58.653Z,101733.00
2019-02-15T17:00:00.235Z,101733.27
2019-02-15T17:05:01.819Z,101729.57
2019-02-15T17:10:04.178Z,101728.84
2019-02-15T17:15:06.983Z,101719.52
2019-02-15T17:20:08.923Z,101730.62
2019-02-15T17:25:10.787Z,101719.75
2019-02-15T17:30:12.399Z,101715.80
2019-02-15T17:35:13.999Z,101715.03
2019-02-15T17:40:15.814Z,101715.75
2019-02-15T17:45:17.410Z,101712.48
2019-02-15T17:50:19.035Z,101714.41
2019-02-15T17:55:20.630Z,101701.94
2019-02-15T18:00:26.055Z,101699.69
2019-02-15T18:05:28.593Z,101701.71
2019-02-15T18:10:30.305Z,101705.27
2019-02-15T18:15:32.116Z,101697.01
2019-02-15T18:20:33.725Z,101692.99
2019-02-15T18:25:35.561Z,101696.95
2019-02-15T18:30:37.250Z,101703.81
2019-02-15T18:35:39.012Z,101694.94
2019-02-15T18:40:40.612Z,101695.88
2019-02-15T18:45:42.214Z,101691.86
2019-02-15T18:50:43.802Z,101696.50
2019-02-15T18:55:45.501Z,101693.88
2019-02-15T19:00:47.113Z,101694.86
2019-02-15T19:05:48.718Z,101689.89
2019-02-15T19:10:50.356Z,101689.41
2019-02-15T19:15:51.971Z,101689.84
2019-02-15T19:20:53.679Z,101687.70
2019-02-15T19:25:55.383Z,101679.67
2019-02-15T19:30:57.133Z,101671.91
2019-02-15T19:35:58.837Z,101677.63
2019-02-15T19:41:00.754Z,101676.46
2019-02-15T19:46:02.342Z,101678.34
2019-02-15T19:51:03.937Z,101683.21
2019-02-15T19:56:05.605Z,101679.05
2019-02-15T20:01:07.178Z,101671.95
2019-02-15T20:06:08.753Z,101672.89
2019-02-15T20:11:10.324Z,101667.11
2019-02-15T20:16:11.894Z,101662.23
2019-02-15T20:21:13.569Z,101660.59
2019-02-15T20:26:15.120Z,101658.73
2019-02-15T20:31:16.710Z,101652.05
2019-02-15T20:36:18.319Z,101654.77
2019-02-15T20:41:19.877Z,101656.63
2019-02-15T20:46:21.448Z,101653.65
2019-02-15T20:51:23.152Z,101650.50
2019-02-15T20:56:24.721Z,101651.81
2019-02-15T21:01:26.294Z,101648.83
2019-02-15T21:06:30.030Z,101637.97
2019-02-15T21:11:31.613Z,101630.47
2019-02-15T21:16:33.163Z,101628.86
2019-02-15T21:21:34.729Z,101620.31
2019-02-15T21:26:36.313Z,101618.95
2019-02-15T21:31:37.873Z,101614.11
2019-02-15T21:36:39.553Z,101613.67
2019-02-15T21:41:41.115Z,101610.42
2019-02-15T21:46:42.678Z,101610.09
2019-02-15T21:51:44.343Z,101603.11
2019-02-15T21:56:45.911Z,101602.14
2019-02-15T22:01:47.602Z,101601.84
2019-02-15T22:06:49.156Z,101599.48
2019-02-15T22:11:50.733Z,101590.14
2019-02-15T22:16:52.301Z,101589.14
2019-02-15T22:21:53.878Z,101587.95
2019-02-15T22:26:55.454Z,101585.22
2019-02-15T22:31:57.045Z,101582.87
2019-02-15T22:36:58.629Z,101575.41
2019-02-15T22:42:00.197Z,101574.47
2019-02-15T22:47:01.768Z,101577.95
2019-02-15T22:52:03.335Z,101580.19
2019-02-15T22:57:04.906Z,101574.97
2019-02-15T23:02:07.160Z,101570.78
2019-02-15T23:07:08.835Z,101575.20
2019-02-15T23:12:10.501Z,101570.53
2019-02-15T23:17:12.169Z,101571.02
2019-02-15T23:22:13.748Z,101569.16
2019-02-15T23:27:15.318Z,101566.28
2019-02-15T23:32:16.922Z,101563.40
2019-02-15T23:37:18.449Z,101558.55
2019-02-15T23:42:20.016Z,101557.84
2019-02-15T23:47:21.573Z,101550.00
2019-02-15T23:52:23.162Z,101552.42
2019-02-15T23:57:24.737Z,101546.27
